Time;durP1;ratioP1;P1;durP2;ratioP2;P2;SDS_P1;SDS_P2;PMS_P1;PMS_P2;Temp;Humidity;BMP_temperature;BMP_pressure;BME280_temperature;BME280_humidity;BME280_pressure;Samples;Min_cycle;Max_cycle;Signal;HPM_P1;HPM_P2
2023/10/04 00:01:50;;;;;;;27.52;20.58;;;22.70;99.90;;;;;;5048961;28;20179;-63
2023/10/04 00:04:16;;;;;;;28.20;19.90;;;22.00;1.00;;;;;;5048269;28;20088;-62
2023/10/04 00:06:42;;;;;;;25.65;18.17;;;22.00;4.50;;;;;;5048940;28;20043;-61
2023/10/04 00:09:09;;;;;;;28.58;20.67;;;22.10;99.90;;;;;;5067542;28;20032;-62
2023/10/04 00:11:35;;;;;;;31.95;19.75;;;22.10;1.00;;;;;;5051457;28;20029;-62
2023/10/04 00:14:01;;;;;;;23.17;17.10;;;22.00;99.90;;;;;;5048296;28;20056;-62
2023/10/04 00:16:26;;;;;;;23.05;17.15;;;22.10;99.90;;;;;;5048009;28;20489;-62
2023/10/04 00:18:54;;;;;;;24.60;17.85;;;22.10;99.90;;;;;;5048449;28;20737;-62
2023/10/04 00:21:20;;;;;;;26.05;20.25;;;22.20;99.90;;;;;;5057302;28;20163;-62
2023/10/04 00:23:45;;;;;;;28.20;20.30;;;22.10;1.00;;;;;;5050684;28;20163;-62
2023/10/04 00:26:11;;;;;;;23.95;17.67;;;22.00;85.20;;;;;;5063980;28;20079;-62
2023/10/04 00:28:39;;;;;;;23.88;19.95;;;22.20;99.90;;;;;;5067230;28;20597;-62
2023/10/04 00:31:06;;;;;;;22.60;17.70;;;22.00;99.90;;;;;;5065086;28;20063;-62
2023/10/04 00:33:32;;;;;;;27.83;20.00;;;22.20;95.40;;;;;;5048023;28;20068;-62
2023/10/04 00:36:03;;;;;;;28.40;20.05;;;22.40;99.90;;;;;;5047791;28;20041;-62
2023/10/04 00:38:30;;;;;;;23.15;18.05;;;22.10;99.90;;;;;;5047745;28;20127;-62
2023/10/04 00:40:56;;;;;;;24.38;19.23;;;22.10;99.90;;;;;;5050791;28;20048;-62
2023/10/04 00:43:22;;;;;;;21.13;18.83;;;22.30;99.90;;;;;;5048619;28;20044;-62
2023/10/04 00:45:49;;;;;;;23.63;19.50;;;21.90;99.90;;;;;;5058314;28;20075;-62
2023/10/04 00:48:18;;;;;;;23.98;21.42;;;22.00;42.80;;;;;;5064672;28;20041;-62
2023/10/04 00:50:44;;;;;;;28.60;21.40;;;21.90;99.90;;;;;;5056597;28;20060;-61
2023/10/04 00:53:26;;;;;;;23.63;17.92;;;21.90;99.90;;;;;;5047245;28;20257;-62
2023/10/04 00:55:56;;;;;;;27.60;18.95;;;22.00;99.90;;;;;;5052220;28;20147;-61
2023/10/04 00:58:23;;;;;;;25.63;16.90;;;22.00;99.90;;;;;;5057093;28;20395;-61
2023/10/04 01:00:48;;;;;;;29.15;18.00;;;22.00;58.90;;;;;;5059351;28;20040;-62
2023/10/04 01:03:24;;;;;;;19.05;14.30;;;22.10;12.50;;;;;;5048402;28;20040;-62
2023/10/04 01:05:51;;;;;;;18.67;14.80;;;22.00;71.30;;;;;;5047790;28;20049;-61
2023/10/04 01:08:23;;;;;;;20.75;15.82;;;22.10;99.90;;;;;;5057115;28;20298;-61
2023/10/04 01:10:50;;;;;;;18.95;16.80;;;22.10;1.00;;;;;;5062264;28;20037;-63
2023/10/04 01:13:21;;;;;;;19.58;15.23;;;21.90;99.90;;;;;;5070856;28;20468;-61
2023/10/04 01:15:54;;;;;;;17.77;14.18;;;21.90;99.90;;;;;;5059938;28;20084;-61
2023/10/04 01:18:20;;;;;;;17.55;15.48;;;22.00;1.00;;;;;;5060184;28;20469;-61
2023/10/04 01:20:46;;;;;;;20.05;17.90;;;21.90;99.90;;;;;;5058825;28;20073;-62
2023/10/04 01:23:12;;;;;;;20.05;16.65;;;21.90;99.90;;;;;;5068900;28;20133;-62
2023/10/04 01:25:41;;;;;;;21.77;17.85;;;21.90;99.90;;;;;;5060612;28;20052;-62
2023/10/04 01:28:17;;;;;;;25.95;17.75;;;22.10;1.00;;;;;;5064366;28;20824;-61
2023/10/04 01:30:44;;;;;;;24.05;19.38;;;21.90;1.00;;;;;;5065633;28;20437;-62
2023/10/04 01:33:15;;;;;;;22.13;18.30;;;22.50;1.00;;;;;;5051177;28;20047;-62
2023/10/04 01:35:44;;;;;;;24.92;18.17;;;21.90;99.90;;;;;;5051151;28;20092;-66
2023/10/04 01:38:10;;;;;;;21.77;18.10;;;21.90;99.90;;;;;;5056984;28;20075;-64
2023/10/04 01:40:37;;;;;;;26.45;19.23;;;22.00;99.90;;;;;;5056152;28;20095;-66
2023/10/04 01:43:14;;;;;;;24.15;19.88;;;21.90;1.00;;;;;;5061892;28;20064;-66
2023/10/04 01:45:43;;;;;;;24.63;20.40;;;22.00;99.90;;;;;;5056169;28;20083;-66
2023/10/04 01:48:09;;;;;;;25.17;18.88;;;22.00;99.90;;;;;;5057782;28;20040;-65
2023/10/04 01:50:34;;;;;;;25.83;19.02;;;21.90;1.00;;;;;;5058065;28;20062;-65
2023/10/04 01:53:01;;;;;;;27.38;19.08;;;22.00;99.90;;;;;;5054906;28;20124;-66
2023/10/04 01:55:26;;;;;;;21.88;18.05;;;21.80;99.90;;;;;;5057897;28;20055;-66
2023/10/04 01:57:52;;;;;;;20.08;16.40;;;21.90;99.90;;;;;;5063504;28;20037;-65
2023/10/04 02:00:20;;;;;;;18.98;15.57;;;21.90;1.00;;;;;;5055885;28;20087;-65
2023/10/04 02:02:46;;;;;;;25.60;18.55;;;21.90;99.90;;;;;;5062374;28;20067;-65
2023/10/04 02:05:17;;;;;;;25.60;18.75;;;22.00;99.90;;;;;;5070456;28;20058;-65
2023/10/04 02:07:44;;;;;;;27.27;19.15;;;22.00;99.90;;;;;;5064618;28;20041;-66
2023/10/04 02:10:11;;;;;;;18.42;16.23;;;21.80;99.90;;;;;;5050305;28;20041;-65
2023/10/04 02:12:36;;;;;;;23.70;17.05;;;21.80;99.90;;;;;;5061936;28;20044;-65
2023/10/04 02:15:03;;;;;;;25.80;17.60;;;21.90;99.90;;;;;;5068663;28;20759;-65
2023/10/04 02:17:29;;;;;;;23.40;18.23;;;22.00;99.90;;;;;;5053832;28;20036;-66
2023/10/04 02:19:54;;;;;;;24.90;18.55;;;22.00;97.20;;;;;;5065716;28;20048;-65
2023/10/04 02:22:20;;;;;;;21.38;18.80;;;21.90;99.90;;;;;;5050997;28;20041;-65
2023/10/04 02:24:47;;;;;;;28.67;20.55;;;22.00;99.90;;;;;;5050929;28;20123;-65
2023/10/04 02:27:14;;;;;;;22.90;18.90;;;21.90;99.90;;;;;;5052046;28;20037;-65
2023/10/04 02:29:44;;;;;;;27.13;21.58;;;22.00;1.00;;;;;;5068786;28;20422;-65
2023/10/04 02:32:09;;;;;;;29.20;20.40;;;22.00;1.00;;;;;;5066692;28;20077;-66
2023/10/04 02:34:38;;;;;;;27.83;19.88;;;22.00;99.90;;;;;;5052476;28;20071;-65
2023/10/04 02:37:07;;;;;;;26.15;19.13;;;21.80;99.90;;;;;;5053982;28;20044;-65
2023/10/04 02:39:39;;;;;;;26.77;20.25;;;22.00;99.90;;;;;;5050099;28;20051;-66
2023/10/04 02:42:12;;;;;;;24.63;20.33;;;21.80;99.90;;;;;;5054019;28;20044;-66
2023/10/04 02:44:37;;;;;;;27.10;20.38;;;22.00;1.00;;;;;;5069174;28;20055;-60
2023/10/04 02:47:08;;;;;;;21.20;17.38;;;21.90;1.00;;;;;;5067804;28;20103;-61
2023/10/04 02:49:37;;;;;;;24.38;19.90;;;22.00;99.90;;;;;;5050451;28;20114;-60
2023/10/04 02:52:06;;;;;;;28.38;20.92;;;21.90;99.90;;;;;;5061466;28;20098;-61
2023/10/04 02:54:32;;;;;;;27.42;21.20;;;21.70;1.00;;;;;;5068387;28;20079;-60
2023/10/04 02:56:58;;;;;;;29.05;20.67;;;21.80;13.40;;;;;;5059109;28;20044;-60
2023/10/04 02:59:25;;;;;;;25.13;20.25;;;21.90;99.90;;;;;;5065758;28;20049;-59
2023/10/04 03:01:50;;;;;;;27.88;19.77;;;21.70;99.90;;;;;;5055863;28;20045;-61
2023/10/04 03:04:17;;;;;;;29.15;18.08;;;21.60;99.90;;;;;;5054548;28;20449;-61
2023/10/04 03:06:43;;;;;;;23.42;18.30;;;21.90;99.90;;;;;;5050634;28;20037;-61
2023/10/04 03:09:09;;;;;;;25.48;18.92;;;22.00;99.90;;;;;;5053250;28;20107;-60
2023/10/04 03:11:37;;;;;;;28.77;21.75;;;21.90;99.90;;;;;;5068652;28;20044;-61
2023/10/04 03:14:06;;;;;;;27.67;20.00;;;22.10;99.90;;;;;;5069672;28;20086;-61
2023/10/04 03:16:33;;;;;;;26.75;19.80;;;21.90;1.00;;;;;;5051099;28;20388;-62
2023/10/04 03:18:59;;;;;;;25.52;20.30;;;21.90;1.00;;;;;;5059817;28;20043;-61
2023/10/04 03:21:28;;;;;;;28.30;20.50;;;22.00;1.90;;;;;;5049225;28;20715;-60
2023/10/04 03:23:55;;;;;;;29.85;22.10;;;22.20;95.00;;;;;;5050034;28;20036;-60
2023/10/04 03:26:21;;;;;;;29.00;21.30;;;22.00;99.90;;;;;;5066540;28;20049;-61
2023/10/04 03:28:46;;;;;;;23.08;19.50;;;22.00;99.90;;;;;;5063365;28;20117;-61
2023/10/04 03:31:14;;;;;;;21.45;18.02;;;21.80;99.90;;;;;;5062504;28;20044;-61
2023/10/04 03:33:42;;;;;;;20.17;18.08;;;21.80;99.90;;;;;;5052889;28;20455;-61
2023/10/04 03:36:08;;;;;;;25.30;20.23;;;21.90;99.90;;;;;;5067799;28;20454;-60
2023/10/04 03:38:35;;;;;;;24.58;20.50;;;21.70;99.90;;;;;;5061006;28;20087;-61
2023/10/04 03:41:04;;;;;;;24.38;19.02;;;21.70;1.00;;;;;;5060237;28;20361;-61
2023/10/04 03:43:35;;;;;;;27.17;18.83;;;21.80;1.00;;;;;;5048410;28;20128;-60
2023/10/04 03:46:08;;;;;;;28.83;21.27;;;21.70;99.90;;;;;;5058985;28;20095;-60
2023/10/04 03:48:37;;;;;;;24.02;19.70;;;21.80;1.00;;;;;;5058036;28;20044;-60
2023/10/04 03:51:03;;;;;;;27.58;21.55;;;21.80;1.00;;;;;;5083823;28;20418;-60
2023/10/04 03:53:29;;;;;;;29.30;20.92;;;21.90;1.00;;;;;;5088667;28;20123;-61
2023/10/04 03:55:59;;;;;;;25.30;20.73;;;21.80;1.00;;;;;;5080415;28;20471;-61
2023/10/04 03:58:25;;;;;;;24.52;19.95;;;21.60;1.00;;;;;;5051400;28;20049;-60
2023/10/04 04:00:51;;;;;;;27.33;20.20;;;22.00;1.00;;;;;;5058390;28;20084;-60
2023/10/04 04:03:18;;;;;;;25.55;19.48;;;21.60;99.90;;;;;;5062848;28;20417;-59
2023/10/04 04:05:44;;;;;;;27.85;21.75;;;21.70;99.90;;;;;;5058802;28;20464;-61
2023/10/04 04:08:12;;;;;;;29.70;20.73;;;21.70;99.90;;;;;;5049425;28;20240;-61
2023/10/04 04:10:38;;;;;;;27.90;20.38;;;21.70;99.90;;;;;;5059276;28;20055;-61
2023/10/04 04:13:04;;;;;;;25.20;20.75;;;21.90;99.90;;;;;;5067675;28;20036;-60
2023/10/04 04:15:33;;;;;;;27.80;21.63;;;21.80;99.90;;;;;;5065871;28;20088;-60
2023/10/04 04:17:59;;;;;;;28.67;21.10;;;22.00;99.90;;;;;;5050667;28;20055;-60
2023/10/04 04:20:26;;;;;;;25.92;21.23;;;21.80;99.90;;;;;;5054908;28;20044;-61
2023/10/04 04:22:53;;;;;;;26.45;20.77;;;21.90;99.90;;;;;;5067343;28;20044;-60
2023/10/04 04:25:23;;;;;;;28.92;21.02;;;21.90;99.90;;;;;;5063771;28;20062;-61
2023/10/04 04:27:50;;;;;;;26.45;20.83;;;21.70;99.90;;;;;;5049711;28;20036;-61
2023/10/04 04:30:30;;;;;;;28.55;21.38;;;21.90;99.90;;;;;;5053133;28;20083;-60
2023/10/04 04:32:56;;;;;;;25.85;21.60;;;21.90;99.90;;;;;;5060220;28;20044;-61
2023/10/04 04:38:13;;;;;;;30.73;22.60;;;21.90;13.50;;;;;;5059080;28;20052;-60
2023/10/04 04:40:40;;;;;;;29.65;23.60;;;22.00;99.90;;;;;;5053228;28;20048;-61
2023/10/04 04:43:18;;;;;;;31.50;23.90;;;21.90;1.00;;;;;;5067550;28;20727;-60
2023/10/04 04:45:51;;;;;;;34.67;25.38;;;21.80;99.90;;;;;;5065466;28;20056;-61
2023/10/04 04:48:25;;;;;;;28.95;23.60;;;21.80;99.90;;;;;;5058668;28;20407;-60
2023/10/04 04:50:52;;;;;;;27.65;24.00;;;21.90;99.90;;;;;;5048637;28;20473;-61
2023/10/04 04:53:21;;;;;;;27.63;23.17;;;21.90;99.90;;;;;;5047383;28;20041;-60
2023/10/04 04:55:47;;;;;;;28.25;21.60;;;21.60;1.00;;;;;;5050591;28;20044;-60
2023/10/04 04:58:18;;;;;;;26.13;21.15;;;21.70;1.00;;;;;;5063624;28;20132;-62
2023/10/04 05:00:44;;;;;;;30.38;22.90;;;21.70;1.00;;;;;;5059165;28;20093;-60
2023/10/04 05:03:11;;;;;;;29.05;23.45;;;21.50;1.00;;;;;;5058636;28;20049;-61
2023/10/04 05:05:37;;;;;;;26.83;21.15;;;21.50;1.00;;;;;;5054005;28;20036;-66
2023/10/04 05:08:06;;;;;;;29.85;21.15;;;21.50;1.00;;;;;;5057071;28;20102;-65
2023/10/04 05:10:38;;;;;;;23.00;18.45;;;21.70;1.00;;;;;;5059144;28;20071;-66
2023/10/04 05:13:07;;;;;;;23.27;19.50;;;21.60;1.00;;;;;;5056792;28;20144;-66
2023/10/04 05:15:39;;;;;;;22.58;18.88;;;21.50;99.90;;;;;;5055298;28;20459;-65
2023/10/04 05:18:05;;;;;;;25.25;20.73;;;21.60;99.90;;;;;;5053601;28;20036;-65
2023/10/04 05:20:32;;;;;;;30.67;21.83;;;21.40;44.20;;;;;;5047154;28;20036;-65
2023/10/04 05:23:01;;;;;;;29.13;21.20;;;21.40;1.00;;;;;;5045565;28;20052;-66
2023/10/04 05:25:30;;;;;;;27.08;21.83;;;22.10;1.00;;;;;;5046339;28;20041;-66
2023/10/04 05:28:11;;;;;;;25.00;22.27;;;21.50;99.90;;;;;;5056927;28;20055;-66
2023/10/04 05:30:38;;;;;;;29.40;22.58;;;21.50;1.00;;;;;;5050807;28;20048;-65
2023/10/04 05:33:06;;;;;;;26.70;22.20;;;21.50;1.00;;;;;;5052441;28;20085;-64
2023/10/04 05:35:33;;;;;;;24.45;21.73;;;21.40;69.10;;;;;;5054049;28;20071;-65
2023/10/04 05:37:59;;;;;;;30.13;23.05;;;21.40;99.90;;;;;;5048967;28;20049;-65
2023/10/04 05:40:25;;;;;;;31.17;23.40;;;21.40;99.90;;;;;;5064551;28;20046;-66
2023/10/04 05:42:54;;;;;;;29.40;24.40;;;21.80;1.00;;;;;;5053317;28;20491;-66
2023/10/04 05:45:25;;;;;;;28.63;24.30;;;21.50;99.90;;;;;;5049551;28;20048;-66
2023/10/04 05:47:51;;;;;;;32.58;24.85;;;21.60;99.90;;;;;;5050480;28;20124;-66
2023/10/04 05:50:23;;;;;;;27.85;22.98;;;21.90;1.00;;;;;;5051496;28;20060;-66
2023/10/04 05:52:58;;;;;;;30.90;22.13;;;21.40;1.00;;;;;;5057904;28;20040;-65
2023/10/04 05:55:24;;;;;;;26.92;21.67;;;21.40;99.90;;;;;;5062693;28;20483;-67
2023/10/04 05:57:50;;;;;;;25.88;21.55;;;21.50;62.30;;;;;;5061070;28;20044;-66
2023/10/04 06:03:00;;;;;;;27.80;24.35;;;21.60;97.20;;;;;;5060856;28;20059;-64
2023/10/04 06:05:27;;;;;;;31.95;24.73;;;21.70;99.90;;;;;;5057835;28;20051;-67
2023/10/04 06:07:55;;;;;;;32.40;24.58;;;21.60;99.90;;;;;;5061373;28;20490;-66
2023/10/04 06:10:23;;;;;;;27.02;22.30;;;21.70;1.00;;;;;;5058638;28;20124;-65
2023/10/04 06:12:50;;;;;;;24.50;21.25;;;21.70;1.00;;;;;;5058983;28;20848;-64
2023/10/04 06:15:17;;;;;;;36.78;22.83;;;21.60;1.00;;;;;;5054306;28;20411;-65
2023/10/04 06:17:50;;;;;;;31.30;21.50;;;21.70;99.90;;;;;;5054967;28;20048;-63
2023/10/04 06:20:33;;;;;;;30.48;22.38;;;21.80;99.90;;;;;;5059864;28;20498;-63
2023/10/04 06:23:01;;;;;;;26.40;21.60;;;22.00;1.00;;;;;;5058614;28;20095;-63
2023/10/04 06:25:29;;;;;;;32.85;21.83;;;22.00;99.90;;;;;;5054214;28;20663;-63
2023/10/04 06:27:59;;;;;;;27.45;22.20;;;22.00;99.90;;;;;;5055438;28;20051;-63
2023/10/04 06:30:27;;;;;;;25.77;22.02;;;22.10;90.10;;;;;;5063112;28;20036;-62
2023/10/04 06:32:57;;;;;;;23.88;21.17;;;22.10;1.00;;;;;;5057391;28;20049;-63
2023/10/04 06:35:24;;;;;;;28.30;21.65;;;22.00;99.90;;;;;;5055151;28;20052;-63
2023/10/04 06:38:03;;;;;;;26.85;22.23;;;21.90;99.90;;;;;;5057805;28;20040;-63
2023/10/04 06:40:31;;;;;;;26.02;23.23;;;21.90;99.90;;;;;;5061954;28;20162;-63
2023/10/04 06:42:59;;;;;;;30.40;25.10;;;21.80;99.90;;;;;;5060170;28;20048;-63
2023/10/04 06:45:26;;;;;;;33.90;25.42;;;22.30;99.90;;;;;;5056167;28;20079;-65
2023/10/04 06:47:54;;;;;;;29.95;25.55;;;22.30;1.00;;;;;;5059570;28;20037;-63
2023/10/04 06:50:21;;;;;;;32.80;24.27;;;22.00;99.90;;;;;;5062114;28;20032;-64
2023/10/04 06:52:51;;;;;;;29.45;24.25;;;21.90;99.90;;;;;;5053366;28;20086;-63
2023/10/04 06:55:19;;;;;;;28.90;24.77;;;22.00;1.00;;;;;;5063761;28;20102;-64
2023/10/04 06:57:46;;;;;;;31.73;25.40;;;22.70;11.50;;;;;;5060687;28;20067;-63
2023/10/04 07:00:15;;;;;;;34.33;24.00;;;21.90;99.90;;;;;;5062083;28;20032;-64
2023/10/04 07:02:51;;;;;;;27.27;22.67;;;22.10;99.90;;;;;;5058677;28;20093;-63
2023/10/04 07:05:19;;;;;;;29.42;23.60;;;22.20;99.90;;;;;;5055491;28;20036;-64
2023/10/04 07:07:46;;;;;;;30.38;23.23;;;22.10;99.90;;;;;;5059258;28;20043;-63
2023/10/04 07:10:15;;;;;;;31.02;24.02;;;22.00;99.90;;;;;;5057507;28;20163;-63
2023/10/04 07:12:45;;;;;;;34.75;24.60;;;22.20;99.90;;;;;;5058911;28;20063;-63
2023/10/04 07:15:13;;;;;;;32.28;24.38;;;22.20;99.90;;;;;;5057411;28;20040;-63
2023/10/04 07:17:39;;;;;;;29.75;24.23;;;22.20;99.90;;;;;;5060652;28;20044;-63
2023/10/04 07:20:14;;;;;;;30.17;24.42;;;22.10;99.90;;;;;;5063000;28;20040;-64
2023/10/04 07:22:42;;;;;;;30.90;24.98;;;22.00;99.90;;;;;;5060623;28;20101;-63
2023/10/04 07:25:08;;;;;;;32.63;24.50;;;22.30;1.00;;;;;;5060447;28;20068;-63
2023/10/04 07:27:34;;;;;;;33.13;24.20;;;22.10;1.00;;;;;;5054333;28;20036;-64
2023/10/04 07:30:01;;;;;;;30.08;25.00;;;22.10;1.00;;;;;;5051724;28;20066;-63
2023/10/04 07:32:28;;;;;;;33.35;25.27;;;22.10;81.70;;;;;;5035400;28;20037;-63
2023/10/04 07:34:54;;;;;;;32.53;24.85;;;22.10;99.90;;;;;;5054928;28;20044;-64
2023/10/04 07:37:20;;;;;;;32.25;25.83;;;22.50;99.90;;;;;;5049677;28;20078;-65
2023/10/04 07:39:46;;;;;;;36.60;25.55;;;22.30;99.90;;;;;;5051967;28;20450;-63
2023/10/04 07:42:12;;;;;;;37.92;25.95;;;22.40;99.90;;;;;;5056010;28;20044;-64
2023/10/04 07:44:38;;;;;;;32.78;26.17;;;22.40;99.90;;;;;;5061728;28;20052;-64
2023/10/04 07:47:04;;;;;;;34.45;27.17;;;22.40;99.90;;;;;;5057934;28;20496;-63
2023/10/04 07:49:30;;;;;;;34.20;26.20;;;22.20;99.90;;;;;;5057009;28;20127;-64
2023/10/04 07:51:56;;;;;;;35.80;25.05;;;22.30;99.90;;;;;;5059225;28;20152;-63
2023/10/04 07:54:22;;;;;;;36.22;23.38;;;22.40;99.90;;;;;;5058945;28;20044;-63
2023/10/04 07:56:51;;;;;;;29.58;23.20;;;22.40;99.90;;;;;;5060344;28;20688;-63
2023/10/04 07:59:17;;;;;;;27.73;22.48;;;22.40;99.90;;;;;;5059847;28;20772;-64
2023/10/04 08:01:43;;;;;;;31.92;24.10;;;22.50;99.90;;;;;;5060195;28;20452;-64
2023/10/04 08:04:11;;;;;;;31.92;23.30;;;22.60;99.90;;;;;;5057487;28;20097;-64
2023/10/04 08:06:38;;;;;;;26.27;23.23;;;23.10;99.90;;;;;;5059171;28;20040;-64
2023/10/04 08:09:04;;;;;;;35.13;24.08;;;23.00;99.90;;;;;;5059478;28;20033;-64
2023/10/04 08:11:32;;;;;;;30.70;24.77;;;23.10;1.00;;;;;;5056659;28;20043;-64
2023/10/04 08:13:58;;;;;;;24.88;22.02;;;23.00;99.90;;;;;;5057778;28;20036;-64
2023/10/04 08:16:24;;;;;;;31.23;23.92;;;22.90;97.00;;;;;;5057060;28;20554;-65
2023/10/04 08:18:49;;;;;;;29.30;23.65;;;23.10;1.00;;;;;;5057717;28;20076;-65
2023/10/04 08:21:15;;;;;;;28.05;24.60;;;23.10;99.90;;;;;;5056837;28;20063;-63
2023/10/04 08:23:41;;;;;;;32.60;24.52;;;23.40;99.90;;;;;;5059707;28;20044;-64
2023/10/04 08:26:16;;;;;;;29.73;25.13;;;23.50;16.90;;;;;;5055544;28;20044;-64
2023/10/04 08:28:43;;;;;;;28.73;23.40;;;23.70;99.90;;;;;;5055205;28;20032;-64
2023/10/04 08:31:09;;;;;;;30.85;25.25;;;23.80;99.90;;;;;;5055873;28;20064;-64
2023/10/04 08:33:34;;;;;;;30.08;25.50;;;23.70;99.90;;;;;;5053441;28;20503;-66
2023/10/04 08:36:03;;;;;;;34.97;24.63;;;23.80;1.00;;;;;;5055989;28;20139;-65
2023/10/04 08:38:29;;;;;;;29.20;25.73;;;24.10;99.90;;;;;;5058266;28;20045;-63
2023/10/04 08:40:54;;;;;;;31.10;26.52;;;23.90;1.00;;;;;;5054691;28;20055;-64
2023/10/04 08:43:20;;;;;;;29.95;25.90;;;23.70;99.90;;;;;;5057002;28;20138;-66
2023/10/04 08:45:47;;;;;;;34.20;25.98;;;23.80;99.90;;;;;;5058087;28;20072;-65
2023/10/04 08:48:13;;;;;;;33.00;26.73;;;23.70;99.90;;;;;;5055293;28;20623;-65
2023/10/04 08:50:39;;;;;;;28.08;25.17;;;24.00;99.90;;;;;;5050380;28;20170;-65
2023/10/04 08:53:17;;;;;;;30.55;25.75;;;23.90;99.90;;;;;;5054139;28;20072;-65
2023/10/04 08:55:51;;;;;;;35.88;23.85;;;23.90;99.90;;;;;;5051242;28;20803;-65
2023/10/04 08:58:17;;;;;;;34.75;25.85;;;24.00;1.00;;;;;;5052630;28;20094;-65
2023/10/04 09:00:44;;;;;;;35.90;26.80;;;24.20;1.00;;;;;;5051068;28;20060;-65
2023/10/04 09:03:12;;;;;;;31.48;26.25;;;24.30;1.00;;;;;;5053012;28;20499;-66
2023/10/04 09:05:39;;;;;;;35.67;28.25;;;24.20;99.90;;;;;;5056260;28;20568;-65
2023/10/04 09:08:05;;;;;;;37.80;28.10;;;24.30;99.90;;;;;;5053904;28;20064;-65
2023/10/04 09:10:33;;;;;;;31.50;25.60;;;24.10;99.90;;;;;;5053092;28;20129;-65
2023/10/04 09:13:03;;;;;;;33.42;28.42;;;24.20;99.90;;;;;;5053566;28;20142;-65
2023/10/04 09:15:30;;;;;;;34.40;28.10;;;24.00;99.90;;;;;;5047860;28;20469;-65
2023/10/04 09:17:57;;;;;;;30.60;27.10;;;23.90;99.90;;;;;;5050184;28;20048;-65
2023/10/04 09:20:30;;;;;;;34.20;26.45;;;24.10;99.90;;;;;;5051793;28;20045;-65
2023/10/04 09:22:56;;;;;;;34.85;26.15;;;23.80;98.60;;;;;;5051896;28;20041;-65
2023/10/04 09:25:22;;;;;;;33.22;27.52;;;24.00;42.00;;;;;;5047631;28;20080;-65
2023/10/04 09:27:55;;;;;;;31.20;26.23;;;23.90;3.00;;;;;;5053752;28;20048;-65
2023/10/04 09:30:22;;;;;;;39.42;27.73;;;24.20;1.00;;;;;;5051072;28;20067;-65
2023/10/04 09:32:49;;;;;;;34.15;26.35;;;23.70;1.00;;;;;;5052315;28;20037;-65
2023/10/04 09:35:16;;;;;;;38.67;26.20;;;24.20;51.50;;;;;;5054301;28;20756;-64
2023/10/04 09:37:44;;;;;;;33.22;26.55;;;23.90;46.20;;;;;;5053101;28;20050;-65
2023/10/04 09:40:12;;;;;;;32.13;25.48;;;24.00;10.20;;;;;;5056407;28;20068;-65
2023/10/04 09:42:53;;;;;;;35.33;26.52;;;23.80;1.00;;;;;;5055362;28;20528;-65
2023/10/04 09:45:24;;;;;;;33.45;26.15;;;23.80;1.00;;;;;;5059063;28;20144;-65
2023/10/04 09:47:53;;;;;;;32.92;25.10;;;23.70;37.00;;;;;;5057986;28;20086;-65
2023/10/04 09:50:24;;;;;;;35.75;27.30;;;23.80;1.00;;;;;;5054402;28;20036;-65
2023/10/04 09:52:51;;;;;;;31.05;25.27;;;23.80;8.70;;;;;;5056940;28;20051;-65
2023/10/04 09:55:17;;;;;;;32.60;23.33;;;23.90;70.80;;;;;;5056005;28;20124;-65
2023/10/04 09:57:44;;;;;;;28.42;25.10;;;23.90;1.00;;;;;;5057108;28;20044;-65
2023/10/04 10:00:17;;;;;;;32.10;24.08;;;23.60;1.00;;;;;;5056206;28;20139;-65
2023/10/04 10:02:52;;;;;;;28.20;23.45;;;23.70;1.00;;;;;;5059845;28;20059;-65
2023/10/04 10:05:29;;;;;;;26.00;22.42;;;23.90;1.00;;;;;;5055127;28;20113;-65
2023/10/04 10:08:04;;;;;;;30.98;24.00;;;24.00;1.00;;;;;;5056512;28;20056;-65
2023/10/04 10:10:33;;;;;;;31.80;24.40;;;24.00;99.90;;;;;;5057290;28;20040;-65
2023/10/04 10:13:00;;;;;;;30.05;23.23;;;24.20;99.90;;;;;;5059329;28;20052;-65
2023/10/04 10:15:25;;;;;;;29.55;23.23;;;24.10;99.90;;;;;;5054743;28;20146;-65
2023/10/04 10:17:53;;;;;;;27.10;24.23;;;24.10;99.90;;;;;;5053278;28;20140;-65
2023/10/04 10:20:19;;;;;;;28.13;22.45;;;24.00;99.90;;;;;;5035359;28;20102;-65
2023/10/04 10:23:00;;;;;;;28.73;22.95;;;23.90;99.90;;;;;;5051556;28;20809;-65
2023/10/04 10:25:26;;;;;;;31.85;24.05;;;23.80;64.60;;;;;;5050125;28;20044;-65
2023/10/04 10:28:03;;;;;;;28.23;23.38;;;23.90;22.20;;;;;;5058187;28;20090;-65
2023/10/04 10:30:31;;;;;;;29.83;23.40;;;23.60;16.60;;;;;;5054234;28;20412;-67
2023/10/04 10:32:59;;;;;;;25.67;22.88;;;23.60;35.30;;;;;;5054654;28;20094;-67
2023/10/04 10:35:56;;;;;;;28.55;22.13;;;23.50;99.90;;;;;;5056772;28;20497;-66
2023/10/04 10:38:40;;;;;;;26.08;21.10;;;23.50;99.90;;;;;;5056335;28;20045;-66
2023/10/04 10:41:06;;;;;;;29.13;22.98;;;23.30;99.90;;;;;;5055650;28;20450;-67
2023/10/04 10:43:35;;;;;;;30.80;24.30;;;23.40;99.90;;;;;;5056979;28;20124;-65
2023/10/04 10:46:28;;;;;;;30.08;23.10;;;23.30;99.90;;;;;;5055489;28;20056;-66
2023/10/04 10:49:02;;;;;;;27.58;23.40;;;23.30;1.00;;;;;;5048230;28;20045;-66
2023/10/04 10:51:42;;;;;;;29.45;22.40;;;23.30;43.00;;;;;;5054816;28;20134;-67
2023/10/04 10:54:08;;;;;;;30.58;22.95;;;23.30;99.90;;;;;;5054812;28;20060;-66
2023/10/04 10:56:37;;;;;;;30.02;21.88;;;23.40;99.90;;;;;;5054836;28;20044;-65
2023/10/04 10:59:05;;;;;;;25.95;20.85;;;23.40;99.90;;;;;;5049480;28;20032;-67
2023/10/04 11:01:30;;;;;;;24.95;21.20;;;23.20;94.80;;;;;;5052850;28;20414;-66
2023/10/04 11:03:58;;;;;;;30.48;24.27;;;23.00;99.90;;;;;;5054165;28;20052;-66
2023/10/04 11:06:25;;;;;;;26.50;23.65;;;22.90;99.90;;;;;;5051209;28;20041;-67
2023/10/04 11:08:53;;;;;;;24.48;21.02;;;23.00;99.90;;;;;;5056165;28;20403;-68
2023/10/04 11:11:20;;;;;;;25.63;22.50;;;23.00;1.00;;;;;;5056959;28;20040;-66
2023/10/04 11:13:48;;;;;;;28.05;22.67;;;23.00;99.90;;;;;;5056172;28;20112;-66
2023/10/04 11:16:14;;;;;;;22.88;18.88;;;23.30;99.90;;;;;;5052934;28;20056;-66
2023/10/04 11:18:39;;;;;;;26.58;21.52;;;23.40;99.90;;;;;;5053604;28;20044;-66
2023/10/04 11:21:06;;;;;;;25.75;23.00;;;23.40;73.40;;;;;;5052912;28;20175;-65
2023/10/04 11:23:33;;;;;;;28.52;22.13;;;23.30;99.90;;;;;;5057593;28;20066;-66
2023/10/04 11:26:04;;;;;;;30.42;23.55;;;23.30;99.90;;;;;;5055210;28;20083;-66
2023/10/04 11:28:30;;;;;;;25.98;22.38;;;23.50;1.00;;;;;;5055203;28;20136;-66
2023/10/04 11:30:56;;;;;;;27.95;22.38;;;23.50;1.00;;;;;;5054849;28;20086;-65
2023/10/04 11:33:23;;;;;;;28.35;23.52;;;23.30;1.00;;;;;;5054164;28;20040;-66
2023/10/04 11:35:49;;;;;;;24.77;22.27;;;23.40;43.00;;;;;;5054592;28;20131;-67
2023/10/04 11:38:19;;;;;;;25.30;22.60;;;23.40;99.90;;;;;;5051819;28;20037;-67
2023/10/04 11:40:49;;;;;;;24.33;21.48;;;23.10;99.90;;;;;;5056550;28;20040;-67
2023/10/04 11:43:15;;;;;;;24.70;21.52;;;23.20;99.90;;;;;;5055065;28;20414;-66
2023/10/04 11:45:41;;;;;;;25.90;22.52;;;23.50;1.00;;;;;;5053780;28;20044;-64
2023/10/04 11:48:10;;;;;;;29.58;24.00;;;23.10;99.90;;;;;;5055783;28;20120;-64
2023/10/04 11:50:53;;;;;;;30.10;24.33;;;23.10;1.00;;;;;;5053430;28;20060;-63
2023/10/04 11:53:33;;;;;;;20.95;18.70;;;23.60;99.90;;;;;;5057279;28;20052;-64
2023/10/04 11:56:00;;;;;;;29.50;24.38;;;23.40;1.00;;;;;;5050119;28;20371;-64
2023/10/04 11:58:27;;;;;;;32.15;24.15;;;23.50;1.00;;;;;;5056750;28;20422;-64
2023/10/04 12:01:04;;;;;;;33.75;23.15;;;23.30;1.00;;;;;;5054078;28;20080;-64
2023/10/04 12:03:31;;;;;;;24.40;21.88;;;23.40;1.00;;;;;;5048805;28;20045;-64
2023/10/04 12:05:56;;;;;;;29.83;21.20;;;23.20;1.00;;;;;;5056011;28;20086;-64
2023/10/04 12:08:22;;;;;;;25.95;22.10;;;23.20;1.00;;;;;;5053158;28;20065;-63
2023/10/04 12:10:47;;;;;;;28.40;23.92;;;23.20;1.00;;;;;;5053751;28;20040;-64
2023/10/04 12:13:13;;;;;;;28.90;24.15;;;23.00;1.00;;;;;;5053357;28;20036;-64
2023/10/04 12:15:39;;;;;;;25.23;20.63;;;23.50;99.90;;;;;;5052099;28;20059;-64
2023/10/04 12:18:06;;;;;;;25.10;21.00;;;23.60;99.90;;;;;;5052620;28;20453;-64
2023/10/04 12:20:36;;;;;;;23.50;19.17;;;23.60;1.00;;;;;;5053527;28;20457;-64
2023/10/04 12:23:02;;;;;;;23.63;19.80;;;23.30;99.90;;;;;;5053447;28;20386;-64
2023/10/04 12:25:28;;;;;;;24.25;21.65;;;23.40;99.90;;;;;;5052864;28;20415;-64
2023/10/04 12:27:54;;;;;;;25.30;22.38;;;23.30;99.90;;;;;;5054532;28;20043;-63
2023/10/04 12:30:21;;;;;;;24.63;22.13;;;23.10;99.90;;;;;;5051695;28;20465;-63
2023/10/04 12:32:46;;;;;;;27.05;21.98;;;23.10;99.90;;;;;;5047731;28;20067;-64
2023/10/04 12:35:13;;;;;;;29.73;23.73;;;23.00;99.90;;;;;;5056228;28;20577;-63
2023/10/04 12:37:39;;;;;;;30.95;22.15;;;23.10;99.90;;;;;;5054179;28;20406;-64
2023/10/04 12:40:17;;;;;;;34.70;27.05;;;22.90;99.90;;;;;;5050464;28;20044;-63
2023/10/04 12:42:46;;;;;;;35.08;29.30;;;22.60;1.00;;;;;;5056395;28;20045;-63